Time;durP1;ratioP1;P1;durP2;ratioP2;P2;SDS_P1;SDS_P2;PMS_P1;PMS_P2;Temp;Humidity;BMP_temperature;BMP_pressure;BME280_temperature;BME280_humidity;BME280_pressure;Samples;Min_cycle;Max_cycle;Signal;HPM_P1;HPM_P2
2021/09/01 00:01:30;;;;;;;5.00;2.50;;;17.30;64.80;;;;;;4863612;29;20397;-62
2021/09/01 00:03:56;;;;;;;4.72;2.70;;;17.30;64.80;;;;;;4859977;29;20029;-63
2021/09/01 00:06:21;;;;;;;4.65;2.55;;;17.30;64.70;;;;;;4860083;29;20033;-62
2021/09/01 00:08:51;;;;;;;4.22;2.40;;;17.20;64.70;;;;;;4859973;29;20042;-62
2021/09/01 00:11:21;;;;;;;5.10;2.53;;;17.20;64.80;;;;;;4859641;29;20029;-63
2021/09/01 00:13:47;;;;;;;5.38;2.47;;;17.20;64.90;;;;;;4859473;29;20036;-63
2021/09/01 00:16:28;;;;;;;4.97;2.58;;;17.20;65.00;;;;;;4859728;29;20466;-63
2021/09/01 00:18:56;;;;;;;4.50;2.38;;;17.20;65.10;;;;;;4859976;29;20037;-63
2021/09/01 00:21:22;;;;;;;4.50;2.58;;;17.20;65.00;;;;;;4859983;29;20052;-63
2021/09/01 00:23:49;;;;;;;5.32;2.70;;;17.20;65.10;;;;;;4860144;29;20431;-63
2021/09/01 00:26:15;;;;;;;4.72;2.38;;;17.20;65.70;;;;;;4860737;29;20076;-62
2021/09/01 00:28:41;;;;;;;4.00;2.20;;;17.20;65.10;;;;;;4853604;29;20029;-63
2021/09/01 00:31:07;;;;;;;4.38;2.30;;;17.20;65.10;;;;;;4859371;29;20063;-63
2021/09/01 00:33:33;;;;;;;4.15;2.40;;;17.20;65.10;;;;;;4846334;29;20040;-63
2021/09/01 00:35:58;;;;;;;4.47;2.47;;;17.20;65.20;;;;;;4859670;29;20124;-63
2021/09/01 00:38:24;;;;;;;4.50;2.40;;;17.10;65.30;;;;;;4859809;29;20093;-64
2021/09/01 00:40:54;;;;;;;4.20;2.45;;;17.00;65.40;;;;;;4859675;29;20429;-63
2021/09/01 00:43:21;;;;;;;4.18;2.38;;;16.90;65.50;;;;;;4842169;29;20075;-63
2021/09/01 00:45:47;;;;;;;4.40;2.40;;;16.90;65.80;;;;;;4859596;29;20354;-62
2021/09/01 00:48:18;;;;;;;4.40;2.35;;;16.80;65.90;;;;;;4859796;29;20406;-64
2021/09/01 00:50:46;;;;;;;4.35;2.45;;;16.80;66.10;;;;;;4859850;29;20556;-63
2021/09/01 00:53:13;;;;;;;4.55;2.60;;;16.70;66.20;;;;;;4859346;29;20036;-62
2021/09/01 00:55:44;;;;;;;4.22;2.47;;;16.70;66.40;;;;;;4842985;29;20389;-63
2021/09/01 00:58:11;;;;;;;4.40;2.40;;;16.60;66.40;;;;;;4859324;29;20068;-62
2021/09/01 01:01:20;;;;;;;4.75;2.83;;;16.60;66.60;;;;;;4859400;29;20034;-62
2021/09/01 01:03:26;;;;;;;4.82;2.67;;;16.60;66.80;;;;;;4854897;29;20042;-63
2021/09/01 01:05:57;;;;;;;5.03;3.03;;;16.50;67.00;;;;;;4859160;29;20034;-62
2021/09/01 01:08:30;;;;;;;5.20;3.03;;;16.50;67.00;;;;;;4859664;29;20150;-62
2021/09/01 01:11:00;;;;;;;5.28;3.22;;;16.60;67.10;;;;;;4859520;29;20030;-62
2021/09/01 01:13:27;;;;;;;4.90;2.85;;;16.50;67.10;;;;;;4859295;29;20028;-62
2021/09/01 01:15:53;;;;;;;5.55;3.35;;;16.50;67.20;;;;;;4859362;29;20041;-61
2021/09/01 01:18:19;;;;;;;6.20;3.55;;;16.50;67.40;;;;;;4859187;29;20033;-62
2021/09/01 01:20:52;;;;;;;5.43;3.40;;;16.40;67.70;;;;;;4874694;29;20536;-62
2021/09/01 01:23:18;;;;;;;6.03;3.53;;;16.30;67.70;;;;;;4877748;29;20048;-62
2021/09/01 01:25:45;;;;;;;4.95;3.28;;;16.30;67.90;;;;;;4863236;29;20042;-63
2021/09/01 01:28:11;;;;;;;6.03;3.35;;;16.30;68.10;;;;;;4863026;29;20054;-62
2021/09/01 01:30:37;;;;;;;6.60;3.53;;;16.20;68.10;;;;;;4862922;29;20117;-62
2021/09/01 01:33:04;;;;;;;6.78;3.95;;;16.20;68.20;;;;;;4862600;29;20421;-62
2021/09/01 01:35:33;;;;;;;5.70;3.38;;;16.20;68.40;;;;;;4863477;29;20469;-62
2021/09/01 01:38:04;;;;;;;5.43;3.35;;;16.20;68.40;;;;;;4845740;29;20093;-62
2021/09/01 01:40:31;;;;;;;5.63;3.40;;;16.10;68.40;;;;;;4862881;29;20022;-62
2021/09/01 01:42:57;;;;;;;5.95;3.90;;;16.10;68.60;;;;;;4862562;29;20033;-62
2021/09/01 01:45:24;;;;;;;6.50;4.03;;;16.10;68.70;;;;;;4844465;29;20037;-62
2021/09/01 01:47:50;;;;;;;6.03;4.00;;;16.10;68.90;;;;;;4844379;29;20235;-63
2021/09/01 01:50:16;;;;;;;5.50;3.60;;;16.10;69.10;;;;;;4844467;29;20133;-63
2021/09/01 01:52:42;;;;;;;6.88;3.95;;;16.00;69.10;;;;;;4844252;29;20576;-62
2021/09/01 01:55:10;;;;;;;6.20;3.90;;;16.00;69.10;;;;;;4860969;29;20430;-62
2021/09/01 01:57:36;;;;;;;6.05;3.80;;;16.00;69.30;;;;;;4862534;29;20053;-62
2021/09/01 02:00:06;;;;;;;5.72;3.72;;;16.00;69.30;;;;;;4876393;29;20497;-62
2021/09/01 02:02:32;;;;;;;5.30;3.30;;;16.10;69.40;;;;;;4864373;29;20028;-64
2021/09/01 02:04:59;;;;;;;5.97;3.65;;;16.10;69.90;;;;;;4865330;29;20037;-63
2021/09/01 02:07:25;;;;;;;5.53;3.10;;;16.10;69.20;;;;;;4862594;29;20093;-62
2021/09/01 02:09:51;;;;;;;5.38;3.30;;;16.20;69.10;;;;;;4862498;29;20199;-61
2021/09/01 02:12:17;;;;;;;6.57;3.60;;;16.20;68.90;;;;;;4862416;29;20117;-62
2021/09/01 02:14:43;;;;;;;5.70;3.40;;;16.20;69.00;;;;;;4862001;29;20116;-62
2021/09/01 02:17:09;;;;;;;5.60;3.63;;;16.20;69.00;;;;;;4862064;29;20032;-62
2021/09/01 02:19:35;;;;;;;5.72;3.60;;;16.10;69.20;;;;;;4862156;29;20034;-62
2021/09/01 02:22:00;;;;;;;7.78;4.32;;;16.10;69.40;;;;;;4845601;29;20418;-62
2021/09/01 02:24:26;;;;;;;6.40;4.13;;;16.00;69.70;;;;;;4861875;29;20481;-62
2021/09/01 02:26:52;;;;;;;5.93;3.90;;;16.00;69.80;;;;;;4861945;29;20105;-62
2021/09/01 02:29:17;;;;;;;6.22;4.47;;;16.00;69.90;;;;;;4861919;29;20025;-63
2021/09/01 02:31:43;;;;;;;6.25;4.30;;;16.00;70.10;;;;;;4861766;29;20043;-63
2021/09/01 02:34:09;;;;;;;6.18;4.00;;;16.00;70.10;;;;;;4860725;29;20390;-62
2021/09/01 02:36:35;;;;;;;6.55;4.60;;;15.90;70.00;;;;;;4861881;29;20041;-62
2021/09/01 02:39:00;;;;;;;6.45;4.25;;;15.90;70.30;;;;;;4862039;29;20445;-63
2021/09/01 02:41:26;;;;;;;6.43;4.18;;;15.80;70.30;;;;;;4861809;29;20100;-63
2021/09/01 02:43:52;;;;;;;5.50;3.78;;;15.80;70.40;;;;;;4861345;29;20414;-63
2021/09/01 02:46:18;;;;;;;6.78;4.32;;;15.80;70.40;;;;;;4861289;29;20493;-63
2021/09/01 02:48:46;;;;;;;6.22;4.05;;;15.80;70.50;;;;;;4861697;29;20473;-62
2021/09/01 02:51:12;;;;;;;6.85;4.28;;;15.70;70.50;;;;;;4861664;29;20110;-62
2021/09/01 02:53:38;;;;;;;5.95;4.20;;;15.80;70.70;;;;;;4861406;29;20144;-63
2021/09/01 02:56:03;;;;;;;6.63;4.45;;;15.70;70.60;;;;;;4861696;29;20760;-62
2021/09/01 02:58:29;;;;;;;7.22;4.45;;;15.70;70.80;;;;;;4861666;29;20121;-62
2021/09/01 03:00:55;;;;;;;7.30;5.38;;;15.70;70.80;;;;;;4861476;29;20041;-62
2021/09/01 03:03:21;;;;;;;7.65;5.22;;;15.70;71.10;;;;;;4861271;29;20060;-63
2021/09/01 03:05:46;;;;;;;9.15;7.07;;;15.60;71.10;;;;;;4861232;29;20085;-62
2021/09/01 03:08:12;;;;;;;7.30;5.97;;;15.50;71.20;;;;;;4861352;29;20444;-62
2021/09/01 03:10:38;;;;;;;8.35;5.97;;;15.50;71.50;;;;;;4862089;29;20030;-63
2021/09/01 03:13:04;;;;;;;7.00;5.20;;;15.40;71.70;;;;;;4849093;29;20033;-62
2021/09/01 03:15:30;;;;;;;7.07;4.93;;;15.40;71.70;;;;;;4861168;29;20026;-63
2021/09/01 03:17:56;;;;;;;7.22;5.03;;;15.40;71.80;;;;;;4861174;29;20465;-63
2021/09/01 03:20:22;;;;;;;8.07;5.05;;;15.30;72.00;;;;;;4861110;29;20112;-62
2021/09/01 03:22:47;;;;;;;7.18;4.85;;;15.30;72.00;;;;;;4860664;29;20054;-62
2021/09/01 03:25:13;;;;;;;7.10;4.55;;;15.30;72.00;;;;;;4860945;29;20022;-62
2021/09/01 03:27:39;;;;;;;6.60;4.63;;;15.30;72.00;;;;;;4860925;29;20037;-62
2021/09/01 03:30:05;;;;;;;6.57;4.60;;;15.20;72.00;;;;;;4860952;29;20377;-62
2021/09/01 03:32:31;;;;;;;7.45;4.82;;;15.20;72.30;;;;;;4844077;29;20037;-62
2021/09/01 03:34:56;;;;;;;6.40;4.53;;;15.20;72.40;;;;;;4860465;29;20060;-62
2021/09/01 03:37:23;;;;;;;6.80;4.68;;;15.30;72.40;;;;;;4861060;29;20852;-63
2021/09/01 03:39:49;;;;;;;7.13;5.22;;;15.30;72.50;;;;;;4861016;29;20838;-62
2021/09/01 03:42:15;;;;;;;7.47;5.63;;;15.30;72.80;;;;;;4860825;29;20439;-62
2021/09/01 03:44:40;;;;;;;8.02;5.70;;;15.30;72.80;;;;;;4859487;29;20037;-63
2021/09/01 03:47:06;;;;;;;8.02;5.78;;;15.40;72.70;;;;;;4860226;29;20037;-62
2021/09/01 03:49:32;;;;;;;9.43;5.50;;;15.40;72.70;;;;;;4860331;29;20025;-63
2021/09/01 03:51:58;;;;;;;8.35;5.65;;;15.50;72.70;;;;;;4860572;29;20492;-62
2021/09/01 03:54:24;;;;;;;7.55;5.53;;;15.50;72.50;;;;;;4860169;29;20366;-62
2021/09/01 03:56:49;;;;;;;7.95;5.20;;;15.60;72.30;;;;;;4860239;29;20021;-62
2021/09/01 03:59:15;;;;;;;7.57;5.00;;;15.60;72.10;;;;;;4860246;29;20504;-63
2021/09/01 04:01:41;;;;;;;9.98;5.88;;;15.70;72.00;;;;;;4860369;29;20158;-64
2021/09/01 04:04:07;;;;;;;8.13;5.55;;;15.70;71.90;;;;;;4860277;29;20404;-63
2021/09/01 04:06:33;;;;;;;8.82;5.70;;;15.80;71.90;;;;;;4843442;29;20437;-63
2021/09/01 04:08:59;;;;;;;7.28;5.03;;;15.80;71.80;;;;;;4859916;29;20061;-63
2021/09/01 04:11:25;;;;;;;6.93;4.70;;;15.90;71.70;;;;;;4859936;29;20383;-63
2021/09/01 04:13:51;;;;;;;6.10;4.18;;;15.90;71.60;;;;;;4860083;29;20032;-63
2021/09/01 04:16:17;;;;;;;8.02;4.72;;;16.00;71.40;;;;;;4860135;29;20033;-62
2021/09/01 04:18:43;;;;;;;6.35;4.13;;;16.00;71.90;;;;;;4859358;29;20104;-63
2021/09/01 04:21:08;;;;;;;8.23;4.88;;;16.00;71.20;;;;;;4859970;29;20120;-63
2021/09/01 04:23:34;;;;;;;7.47;4.20;;;16.10;71.10;;;;;;4860193;29;20093;-63
2021/09/01 04:26:00;;;;;;;6.53;4.40;;;16.10;71.20;;;;;;4859467;29;20034;-62
2021/09/01 04:28:25;;;;;;;7.90;4.40;;;16.10;71.20;;;;;;4859752;29;20029;-63
2021/09/01 04:30:51;;;;;;;6.60;4.30;;;16.20;71.20;;;;;;4859790;29;20529;-63
2021/09/01 04:33:17;;;;;;;5.60;3.88;;;16.20;71.00;;;;;;4859754;29;20350;-64
2021/09/01 04:35:44;;;;;;;5.50;3.55;;;16.30;71.00;;;;;;4859594;29;20165;-65
2021/09/01 04:38:09;;;;;;;6.25;3.72;;;16.40;71.00;;;;;;4858682;29;20026;-62
2021/09/01 04:40:35;;;;;;;6.05;3.55;;;16.50;70.80;;;;;;4859358;29;20033;-62
2021/09/01 04:43:01;;;;;;;5.38;3.42;;;16.60;70.70;;;;;;4859648;29;20057;-63
2021/09/01 04:45:27;;;;;;;5.35;3.55;;;16.80;70.50;;;;;;4843008;29;20033;-63
2021/09/01 04:47:53;;;;;;;5.00;3.10;;;16.90;70.20;;;;;;4859388;29;20038;-63
2021/09/01 04:50:19;;;;;;;4.95;3.00;;;17.00;69.90;;;;;;4859232;29;20051;-63
2021/09/01 04:52:44;;;;;;;5.03;2.90;;;17.10;69.60;;;;;;4859557;29;20025;-63
2021/09/01 04:55:10;;;;;;;5.10;3.08;;;17.30;70.10;;;;;;4859166;29;20057;-62
2021/09/01 04:57:36;;;;;;;5.15;3.30;;;17.40;69.10;;;;;;4842544;29;20108;-63
2021/09/01 05:00:04;;;;;;;5.55;3.30;;;17.50;68.90;;;;;;4850891;29;20223;-62
2021/09/01 05:02:30;;;;;;;5.50;3.40;;;17.60;68.90;;;;;;4854471;29;20101;-63
2021/09/01 05:04:56;;;;;;;6.13;3.47;;;17.70;68.90;;;;;;4858974;29;20041;-63
2021/09/01 05:07:21;;;;;;;6.90;3.45;;;17.80;68.60;;;;;;4859388;29;20041;-63
2021/09/01 05:09:47;;;;;;;5.40;3.40;;;17.90;68.40;;;;;;4859515;29;20481;-63
2021/09/01 05:12:13;;;;;;;5.60;3.28;;;18.00;68.30;;;;;;4859182;29;20026;-63
2021/09/01 05:14:38;;;;;;;6.78;3.35;;;18.10;68.10;;;;;;4859030;29;20040;-63
2021/09/01 05:17:04;;;;;;;5.18;3.33;;;18.20;68.00;;;;;;4859078;29;20116;-63
2021/09/01 05:19:29;;;;;;;5.35;3.45;;;18.20;67.90;;;;;;4858949;29;20025;-62
2021/09/01 05:21:59;;;;;;;5.53;3.30;;;18.30;67.70;;;;;;4858595;29;20054;-63
2021/09/01 05:24:31;;;;;;;5.45;3.40;;;18.40;67.80;;;;;;4859258;29;20030;-64
2021/09/01 05:27:06;;;;;;;5.78;3.40;;;18.50;68.20;;;;;;4859189;29;20052;-63
2021/09/01 05:29:40;;;;;;;5.03;3.10;;;18.60;67.40;;;;;;4858970;29;20033;-63
2021/09/01 05:32:11;;;;;;;4.80;2.95;;;18.80;67.30;;;;;;4858481;29;20105;-63
2021/09/01 05:34:36;;;;;;;5.20;3.28;;;18.90;67.00;;;;;;4859407;29;20807;-63
2021/09/01 05:37:02;;;;;;;4.70;2.70;;;19.00;66.70;;;;;;4859107;29;20041;-63
2021/09/01 05:39:28;;;;;;;5.70;2.58;;;19.20;66.60;;;;;;4858543;29;20561;-64
2021/09/01 05:41:54;;;;;;;5.65;2.60;;;19.30;66.30;;;;;;4859102;29;20454;-63
2021/09/01 05:44:20;;;;;;;4.20;2.30;;;19.50;65.90;;;;;;4858968;29;20034;-63
2021/09/01 05:46:47;;;;;;;4.30;2.50;;;19.70;65.60;;;;;;4868033;29;20112;-63
2021/09/01 05:49:13;;;;;;;4.25;2.45;;;19.80;65.20;;;;;;4860125;29;20021;-63
2021/09/01 05:51:39;;;;;;;4.80;2.80;;;20.00;64.80;;;;;;4858438;29;20034;-63
2021/09/01 05:54:05;;;;;;;4.68;2.70;;;20.10;64.40;;;;;;4858875;29;20017;-63
2021/09/01 05:56:34;;;;;;;4.70;2.72;;;20.20;64.10;;;;;;4858611;29;20036;-63
2021/09/01 05:59:06;;;;;;;4.95;2.75;;;20.20;63.70;;;;;;4858572;29;20073;-63
2021/09/01 06:01:38;;;;;;;4.15;2.40;;;20.30;63.70;;;;;;4858342;29;20085;-64
2021/09/01 06:04:07;;;;;;;;;;;20.40;63.80;;;;;;4830382;29;20437;-64
2021/09/01 06:06:37;;;;;;;4.68;2.30;;;20.50;63.70;;;;;;4858574;29;19916;-64
2021/09/01 06:09:03;;;;;;;4.43;2.60;;;20.70;63.40;;;;;;4860962;29;20049;-63
2021/09/01 06:11:30;;;;;;;4.72;2.80;;;20.80;62.90;;;;;;4861283;29;20119;-64
2021/09/01 06:13:56;;;;;;;5.07;2.50;;;20.90;62.70;;;;;;4861640;29;20078;-64
2021/09/01 06:16:21;;;;;;;4.03;2.30;;;21.00;62.50;;;;;;4862034;29;20041;-64
2021/09/01 06:18:47;;;;;;;4.72;2.53;;;21.10;62.20;;;;;;4861684;29;20142;-64
2021/09/01 06:21:13;;;;;;;4.10;2.40;;;21.20;61.70;;;;;;4861696;29;20034;-64
2021/09/01 06:23:38;;;;;;;4.20;2.45;;;21.20;61.40;;;;;;4861391;29;20437;-63
2021/09/01 06:26:04;;;;;;;5.38;2.50;;;21.30;61.00;;;;;;4862202;29;20100;-64
2021/09/01 06:28:30;;;;;;;4.70;2.60;;;21.40;60.80;;;;;;4861494;29;20025;-64
2021/09/01 06:30:55;;;;;;;4.43;2.50;;;21.40;60.70;;;;;;4861010;29;20389;-64
2021/09/01 06:33:21;;;;;;;4.00;2.30;;;21.50;60.90;;;;;;4861291;29;20021;-64
2021/09/01 06:35:49;;;;;;;4.47;2.40;;;21.60;60.70;;;;;;4860920;29;20392;-64
2021/09/01 06:38:15;;;;;;;4.18;2.22;;;21.80;60.40;;;;;;4861187;29;20052;-63
2021/09/01 06:40:41;;;;;;;4.57;2.50;;;21.90;60.00;;;;;;4861531;29;20481;-63
2021/09/01 06:43:08;;;;;;;4.25;2.40;;;22.00;59.30;;;;;;4861791;29;20025;-64
2021/09/01 06:45:33;;;;;;;4.25;2.20;;;22.00;58.90;;;;;;4861423;29;20033;-64
2021/09/01 06:47:59;;;;;;;3.58;2.10;;;22.10;59.00;;;;;;4861089;29;20508;-64
2021/09/01 06:50:27;;;;;;;4.82;2.13;;;22.30;59.10;;;;;;4861483;29;20029;-63
2021/09/01 06:52:53;;;;;;;4.65;2.60;;;22.50;58.70;;;;;;4861150;29;20101;-64
2021/09/01 06:55:20;;;;;;;4.65;2.47;;;22.60;57.80;;;;;;4860275;29;20022;-65
2021/09/01 06:57:46;;;;;;;4.10;2.20;;;22.70;57.60;;;;;;4861087;29;20501;-63
2021/09/01 07:00:14;;;;;;;3.80;2.13;;;22.80;57.50;;;;;;4860925;29;20037;-64
2021/09/01 07:02:40;;;;;;;3.95;2.25;;;22.90;57.30;;;;;;4860754;29;20385;-65
2021/09/01 07:05:07;;;;;;;4.10;2.28;;;23.00;57.30;;;;;;4861255;29;20033;-66
2021/09/01 07:07:33;;;;;;;4.82;2.17;;;23.20;56.80;;;;;;4861142;29;20355;-64
2021/09/01 07:09:59;;;;;;;3.15;1.90;;;23.30;56.30;;;;;;4860863;29;20098;-64
2021/09/01 07:12:27;;;;;;;3.45;1.98;;;23.50;56.30;;;;;;4861013;29;20401;-64
2021/09/01 07:14:53;;;;;;;4.20;2.25;;;23.60;55.90;;;;;;4861195;29;20021;-64
2021/09/01 07:17:18;;;;;;;3.92;2.20;;;23.70;55.30;;;;;;4860834;29;20376;-63
2021/09/01 07:19:44;;;;;;;3.83;2.15;;;23.90;55.00;;;;;;4860847;29;20090;-64
2021/09/01 07:22:11;;;;;;;3.83;2.00;;;23.90;54.60;;;;;;4860125;29;20054;-64
2021/09/01 07:24:36;;;;;;;3.83;2.15;;;24.00;55.40;;;;;;4860626;29;20045;-65
2021/09/01 07:27:02;;;;;;;4.25;2.25;;;24.20;54.30;;;;;;4860756;29;20033;-65
2021/09/01 07:29:28;;;;;;;3.70;2.10;;;24.30;53.90;;;;;;4860594;29;20078;-65
2021/09/01 07:31:54;;;;;;;3.80;2.10;;;24.40;54.10;;;;;;4861036;29;20385;-65
2021/09/01 07:34:19;;;;;;;4.20;2.03;;;24.50;53.80;;;;;;4858436;29;20042;-64
2021/09/01 07:36:45;;;;;;;4.13;1.95;;;24.60;53.60;;;;;;4860435;29;20037;-64
2021/09/01 07:39:11;;;;;;;3.35;1.73;;;24.80;53.40;;;;;;4860168;29;20054;-64
2021/09/01 07:41:37;;;;;;;3.60;1.98;;;24.90;53.00;;;;;;4860054;29;20052;-65
2021/09/01 07:44:05;;;;;;;4.22;1.90;;;25.10;52.70;;;;;;4860118;29;20129;-64
2021/09/01 07:46:31;;;;;;;3.05;1.85;;;25.30;52.60;;;;;;4859631;29;20025;-64
2021/09/01 07:49:00;;;;;;;3.67;2.00;;;25.40;52.10;;;;;;4860011;29;20799;-65
2021/09/01 07:51:26;;;;;;;3.53;1.80;;;25.40;51.80;;;;;;4860418;29;20058;-65
2021/09/01 07:53:52;;;;;;;4.72;1.95;;;25.50;51.60;;;;;;4859166;29;20040;-64
2021/09/01 07:56:17;;;;;;;3.85;1.90;;;25.60;51.60;;;;;;4859904;29;20034;-64
2021/09/01 07:58:43;;;;;;;3.53;1.90;;;25.70;51.60;;;;;;4861330;29;20034;-65
2021/09/01 08:01:09;;;;;;;3.97;2.30;;;25.80;51.10;;;;;;4870417;29;20021;-65
2021/09/01 08:03:34;;;;;;;4.28;2.20;;;25.80;50.80;;;;;;4860237;29;20060;-65
2021/09/01 08:06:02;;;;;;;3.53;2.10;;;25.90;50.30;;;;;;4846678;29;20162;-65
2021/09/01 08:08:28;;;;;;;3.38;1.80;;;26.00;50.70;;;;;;4860226;29;20032;-64
2021/09/01 08:10:54;;;;;;;3.67;1.90;;;26.10;50.50;;;;;;4860148;29;20026;-64
2021/09/01 08:13:20;;;;;;;4.40;2.13;;;26.20;50.40;;;;;;4863053;29;20029;-65
2021/09/01 08:15:46;;;;;;;3.97;2.30;;;26.40;50.10;;;;;;4843749;29;20040;-66
2021/09/01 08:18:11;;;;;;;4.65;2.20;;;26.50;49.80;;;;;;4860238;29;20033;-64
2021/09/01 08:20:37;;;;;;;3.60;1.90;;;26.60;49.30;;;;;;4853633;29;20099;-65
2021/09/01 08:23:03;;;;;;;4.32;2.10;;;26.70;49.30;;;;;;4853414;29;20045;-64
2021/09/01 08:25:28;;;;;;;4.15;1.80;;;26.70;49.30;;;;;;4860074;29;20062;-64
2021/09/01 08:27:54;;;;;;;3.70;2.03;;;26.90;49.30;;;;;;4856274;29;20383;-63
2021/09/01 08:30:20;;;;;;;3.60;1.85;;;27.10;48.70;;;;;;4859485;29;20036;-64
2021/09/01 08:32:45;;;;;;;3.55;1.70;;;27.20;48.60;;;;;;4859986;29;20097;-64
2021/09/01 08:35:26;;;;;;;3.55;2.00;;;27.50;48.50;;;;;;4859854;29;20036;-65
2021/09/01 08:37:52;;;;;;;3.83;1.90;;;27.70;47.20;;;;;;4843054;29;20060;-64
2021/09/01 08:40:18;;;;;;;2.65;1.60;;;27.80;47.10;;;;;;4877769;29;20079;-64
2021/09/01 08:42:46;;;;;;;2.83;1.60;;;27.90;47.00;;;;;;4878081;29;20361;-64
2021/09/01 08:45:12;;;;;;;4.18;1.63;;;28.00;46.80;;;;;;4861360;29;20026;-64
2021/09/01 08:47:39;;;;;;;3.45;1.90;;;28.10;46.50;;;;;;4859572;29;20497;-64
2021/09/01 08:50:06;;;;;;;3.22;1.83;;;28.10;46.20;;;;;;4859858;29;20026;-64
2021/09/01 08:52:32;;;;;;;3.25;1.90;;;28.20;46.40;;;;;;4859776;29;20030;-65
2021/09/01 08:54:57;;;;;;;3.90;2.03;;;28.20;45.60;;;;;;4859516;29;20033;-65
2021/09/01 08:57:23;;;;;;;4.63;1.92;;;28.20;45.20;;;;;;4859383;29;20442;-65
2021/09/01 08:59:49;;;;;;;3.08;1.80;;;28.10;45.50;;;;;;4859441;29;20128;-65
2021/09/01 09:02:14;;;;;;;3.20;1.90;;;28.10;45.20;;;;;;4859454;29;20059;-65
2021/09/01 09:04:40;;;;;;;4.00;1.85;;;28.10;45.30;;;;;;4859352;29;20053;-65
2021/09/01 09:07:07;;;;;;;4.20;2.17;;;28.00;44.90;;;;;;4859118;29;20033;-64
2021/09/01 09:09:36;;;;;;;3.80;2.10;;;27.90;44.30;;;;;;4859416;29;20026;-64
2021/09/01 09:12:05;;;;;;;3.50;2.10;;;27.80;44.70;;;;;;4859291;29;20026;-64
2021/09/01 09:14:46;;;;;;;3.90;2.20;;;27.70;44.20;;;;;;4856992;29;20029;-68
2021/09/01 09:17:16;;;;;;;4.15;2.20;;;27.60;44.20;;;;;;4841158;29;20038;-64
2021/09/01 09:19:45;;;;;;;3.30;2.00;;;27.40;44.40;;;;;;4858779;29;20041;-64
2021/09/01 09:22:13;;;;;;;3.00;1.80;;;27.30;44.60;;;;;;4862402;29;20071;-64
2021/09/01 09:24:38;;;;;;;2.90;1.60;;;27.20;44.80;;;;;;4859162;29;20040;-65
2021/09/01 09:27:07;;;;;;;3.72;1.70;;;27.10;44.90;;;;;;4842778;29;20124;-63
2021/09/01 09:29:34;;;;;;;3.17;1.77;;;27.00;44.90;;;;;;4859281;29;20381;-63
2021/09/01 09:32:01;;;;;;;3.10;1.70;;;27.00;45.20;;;;;;4859412;29;20056;-64
2021/09/01 09:34:40;;;;;;;4.20;1.85;;;27.00;45.20;;;;;;4842902;29;20089;-64
2021/09/01 09:37:11;;;;;;;2.88;1.70;;;26.90;45.10;;;;;;4859182;29;20384;-63
2021/09/01 09:39:48;;;;;;;2.83;1.70;;;27.00;45.30;;;;;;4859704;29;20869;-64
2021/09/01 09:42:29;;;;;;;4.30;2.28;;;27.00;45.00;;;;;;4860721;29;20026;-63
2021/09/01 09:44:55;;;;;;;3.75;1.90;;;27.10;44.30;;;;;;4862593;29;20029;-65
2021/09/01 09:47:47;;;;;;;5.80;2.50;;;27.00;44.30;;;;;;4860597;29;20033;-65
2021/09/01 09:50:14;;;;;;;6.78;2.92;;;27.00;44.10;;;;;;4857704;29;20104;-65
2021/09/01 09:52:39;;;;;;;5.13;2.53;;;27.00;44.40;;;;;;4868258;29;20370;-64
2021/09/01 09:55:19;;;;;;;5.53;2.60;;;26.90;44.50;;;;;;4862249;29;20109;-64
2021/09/01 09:57:48;;;;;;;4.32;2.65;;;26.80;43.90;;;;;;4862269;29;20057;-67
2021/09/01 10:00:16;;;;;;;5.20;3.30;;;26.70;43.00;;;;;;4861059;29;20030;-68
2021/09/01 10:02:42;;;;;;;4.72;2.78;;;26.60;42.40;;;;;;4861996;29;20130;-67
2021/09/01 10:05:13;;;;;;;4.72;2.45;;;26.40;42.60;;;;;;4862320;29;20042;-67
2021/09/01 10:07:39;;;;;;;4.72;3.10;;;26.50;43.10;;;;;;4861753;29;20025;-67
2021/09/01 10:10:06;;;;;;;5.40;3.13;;;26.70;42.70;;;;;;4861999;29;20085;-67
2021/09/01 10:12:39;;;;;;;5.38;3.20;;;26.90;43.00;;;;;;4861903;29;20033;-67
2021/09/01 10:15:08;;;;;;;5.50;3.03;;;27.60;42.50;;;;;;4861968;29;20470;-67
2021/09/01 10:17:39;;;;;;;5.13;3.20;;;28.40;41.90;;;;;;4861856;29;20041;-67
2021/09/01 10:20:08;;;;;;;3.97;2.50;;;29.10;40.90;;;;;;4861999;29;20032;-68
2021/09/01 10:22:34;;;;;;;5.30;3.10;;;29.90;40.90;;;;;;4860934;29;20063;-68
2021/09/01 10:24:59;;;;;;;4.63;3.15;;;30.70;39.00;;;;;;4861788;29;20033;-67
2021/09/01 10:27:28;;;;;;;4.00;2.60;;;31.30;39.40;;;;;;4861626;29;20508;-67
2021/09/01 10:30:04;;;;;;;3.80;2.40;;;31.90;38.70;;;;;;4862045;29;20040;-68
2021/09/01 10:32:47;;;;;;;4.10;2.50;;;32.40;38.70;;;;;;4861881;29;20507;-68
2021/09/01 10:37:44;;;;;;;4.03;2.47;;;33.40;38.00;;;;;;4861699;29;20117;-67
2021/09/01 10:40:15;;;;;;;3.47;2.13;;;33.90;36.50;;;;;;4861873;29;20041;-66
2021/09/01 10:42:45;;;;;;;4.72;2.30;;;34.40;36.90;;;;;;4861804;29;20045;-68
2021/09/01 10:45:17;;;;;;;4.03;2.33;;;35.10;36.10;;;;;;4861634;29;20029;-66
2021/09/01 10:47:52;;;;;;;3.20;1.90;;;35.10;35.10;;;;;;4861462;29;20040;-66
2021/09/01 10:50:28;;;;;;;2.97;1.85;;;34.40;35.80;;;;;;4861655;29;20026;-67
2021/09/01 10:53:12;;;;;;;3.20;1.80;;;33.90;36.70;;;;;;4861322;29;20029;-67
2021/09/01 10:55:55;;;;;;;3.60;1.73;;;33.80;37.60;;;;;;4861453;29;20037;-67
2021/09/01 10:58:38;;;;;;;3.33;1.90;;;33.40;38.30;;;;;;4861314;29;20025;-66
2021/09/01 11:01:19;;;;;;;4.30;2.10;;;33.20;39.00;;;;;;4861446;29;20029;-67
2021/09/01 11:03:53;;;;;;;3.95;2.13;;;32.90;39.30;;;;;;4861347;29;20108;-68
2021/09/01 11:06:26;;;;;;;3.25;1.90;;;32.50;39.80;;;;;;4861164;29;20034;-67
2021/09/01 11:09:00;;;;;;;3.55;1.70;;;32.30;40.50;;;;;;4861386;29;20889;-67
2021/09/01 11:11:47;;;;;;;2.97;1.75;;;32.40;41.40;;;;;;4861239;29;20366;-67
2021/09/01 11:14:33;;;;;;;3.20;1.85;;;33.10;41.40;;;;;;4844541;29;20042;-67
2021/09/01 11:17:00;;;;;;;3.40;1.92;;;33.50;41.00;;;;;;4861026;29;20440;-67
2021/09/01 11:19:26;;;;;;;3.90;1.83;;;34.00;41.00;;;;;;4860991;29;20105;-67
2021/09/01 11:21:52;;;;;;;3.30;1.60;;;34.60;40.80;;;;;;4860967;29;20498;-67
2021/09/01 11:24:19;;;;;;;3.10;1.70;;;35.20;40.70;;;;;;4860952;29;20393;-67
2021/09/01 11:26:46;;;;;;;3.50;1.60;;;35.80;39.90;;;;;;4861214;29;20481;-67
2021/09/01 11:29:12;;;;;;;3.15;1.70;;;35.80;39.30;;;;;;4860842;29;20462;-66
2021/09/01 11:31:43;;;;;;;4.53;1.92;;;35.30;38.90;;;;;;4860786;29;20389;-66
2021/09/01 11:34:12;;;;;;;4.35;2.00;;;34.60;38.90;;;;;;4860735;29;20473;-67
2021/09/01 11:36:39;;;;;;;3.20;1.77;;;33.90;39.20;;;;;;4860838;29;20072;-67
2021/09/01 11:39:05;;;;;;;3.78;1.80;;;33.30;39.60;;;;;;4844023;29;20033;-68
2021/09/01 11:41:31;;;;;;;4.22;1.98;;;33.10;40.60;;;;;;4860538;29;20090;-67
2021/09/01 11:44:02;;;;;;;3.75;1.90;;;33.30;40.80;;;;;;4860593;29;20037;-67
2021/09/01 11:46:34;;;;;;;3.97;2.10;;;33.70;40.70;;;;;;4860520;29;20030;-67
2021/09/01 11:49:07;;;;;;;4.93;1.80;;;34.20;40.50;;;;;;4860448;29;20491;-68
2021/09/01 11:51:34;;;;;;;3.47;1.70;;;34.50;40.10;;;;;;4860520;29;20034;-67
2021/09/01 11:54:00;;;;;;;3.70;1.90;;;34.90;40.40;;;;;;4860583;29;20068;-67
2021/09/01 11:56:27;;;;;;;3.40;1.75;;;35.40;39.70;;;;;;4860288;29;20061;-68
2021/09/01 11:59:04;;;;;;;4.10;1.80;;;35.20;39.10;;;;;;4860352;29;20426;-68
2021/09/01 12:01:32;;;;;;;5.60;2.10;;;34.50;38.90;;;;;;4860291;29;20092;-67
2021/09/01 12:03:59;;;;;;;3.90;1.90;;;33.80;39.20;;;;;;4859242;29;20033;-67
2021/09/01 12:06:39;;;;;;;3.63;1.98;;;33.00;39.70;;;;;;4858405;29;20489;-67
2021/09/01 12:09:08;;;;;;;5.10;1.95;;;32.30;40.30;;;;;;4860374;29;20485;-68
2021/09/01 12:11:34;;;;;;;3.40;1.90;;;31.90;40.80;;;;;;4860207;29;20033;-68
2021/09/01 12:14:06;;;;;;;3.45;1.83;;;31.50;40.90;;;;;;4860082;29;20485;-68
2021/09/01 12:16:33;;;;;;;6.55;2.20;;;31.10;41.20;;;;;;4843529;29;20481;-68
2021/09/01 12:19:10;;;;;;;4.20;2.10;;;30.70;41.60;;;;;;4859923;29;20374;-67
2021/09/01 12:22:02;;;;;;;3.60;1.95;;;30.30;42.00;;;;;;4859944;29;20066;-67
2021/09/01 12:24:33;;;;;;;3.85;2.17;;;29.90;42.50;;;;;;4859155;29;20450;-68
2021/09/01 12:27:08;;;;;;;4.13;2.50;;;29.70;42.70;;;;;;4859824;29;20040;-67
2021/09/01 12:29:35;;;;;;;4.40;2.25;;;29.60;43.10;;;;;;4859785;29;20091;-67
2021/09/01 12:32:01;;;;;;;5.03;2.13;;;29.50;43.20;;;;;;4859710;29;20025;-69
2021/09/01 12:34:33;;;;;;;4.88;1.98;;;29.30;43.10;;;;;;4859933;29;20500;-67
2021/09/01 12:37:05;;;;;;;3.30;1.80;;;29.10;43.10;;;;;;4859762;29;20064;-68
2021/09/01 12:39:54;;;;;;;10.88;2.28;;;28.80;43.20;;;;;;4860132;29;20338;-68
2021/09/01 12:42:40;;;;;;;3.17;1.88;;;28.50;43.60;;;;;;4859727;29;20029;-67
2021/09/01 12:45:13;;;;;;;3.83;1.90;;;28.20;44.00;;;;;;4860024;29;20048;-68
2021/09/01 12:48:15;;;;;;;3.92;2.08;;;27.90;44.60;;;;;;4859654;29;20120;-68
2021/09/01 12:50:44;;;;;;;4.13;1.90;;;27.60;45.10;;;;;;4833728;29;20037;-67
2021/09/01 12:53:11;;;;;;;3.53;1.90;;;27.40;45.10;;;;;;4859711;29;20037;-67
2021/09/01 12:55:44;;;;;;;5.82;2.03;;;27.20;45.30;;;;;;4859595;29;20033;-66